createdAt,value
2022-10-06T10:26:32.206Z,68.8
2022-10-06T10:31:44.739Z,69.4
2022-10-06T10:37:47.361Z,69.8
2022-10-06T10:43:24.784Z,70.2
2022-10-06T10:49:07.504Z,70.7
2022-10-06T10:54:32.242Z,69.8
2022-10-06T11:00:10.055Z,69.8
2022-10-06T11:05:48.958Z,70.4
2022-10-06T11:11:11.591Z,71
2022-10-06T11:16:56.586Z,71.4
2022-10-06T11:22:19.707Z,71.8
2022-10-06T11:27:45.456Z,71.6
2022-10-06T11:33:09.237Z,72
2022-10-06T11:38:31.773Z,72.3
2022-10-06T11:43:59.726Z,72
2022-10-06T11:49:32.036Z,72.2
2022-10-06T11:55:15.041Z,72.5
2022-10-06T12:00:59.175Z,72.4
2022-10-06T12:07:00.738Z,72.6
2022-10-06T12:12:43.168Z,72.6
2022-10-06T12:21:33.911Z,72.4
2022-10-06T12:26:56.705Z,72.6
2022-10-06T12:32:24.278Z,72.4
2022-10-06T12:37:54.175Z,71.8
2022-10-06T12:43:16.793Z,71.4
2022-10-06T12:48:40.003Z,71.4
2022-10-06T12:54:06.443Z,70.8
2022-10-06T12:59:28.883Z,70.5
2022-10-06T13:05:07.727Z,70.3
2022-10-06T13:10:49.407Z,70
2022-10-06T13:16:26.764Z,69.4
2022-10-06T13:21:53.639Z,68.8
2022-10-06T13:27:15.741Z,68.2
2022-10-06T13:32:58.621Z,67.8
2022-10-06T13:38:39.051Z,67.3
2022-10-06T13:44:28.691Z,66.8
2022-10-06T13:50:06.763Z,66.1
2022-10-06T13:55:45.011Z,65.4
2022-10-06T14:01:26.189Z,64.8
2022-10-06T14:07:09.601Z,64.1
2022-10-06T14:12:51.869Z,63.3
2022-10-06T14:18:30.416Z,62.6
2022-10-06T14:23:53.023Z,61.9
2022-10-06T14:29:31.993Z,61.3
2022-10-06T14:35:12.527Z,60.6
2022-10-06T19:55:58.910Z,32.3
2022-10-06T20:01:21.595Z,32.3
2022-10-06T20:06:58.712Z,32.3
2022-10-06T20:12:24.823Z,32.3
2022-10-06T20:18:03.879Z,32.3
2022-10-06T20:23:10.335Z,32.3
2022-10-06T20:28:49.167Z,32.3
2022-10-06T20:34:11.493Z,32.3
2022-10-06T20:39:33.207Z,32.3
2022-10-06T20:44:55.181Z,32.3
2022-10-06T20:50:18.034Z,32.3
2022-10-06T20:55:58.155Z,32.3
2022-10-06T21:01:35.928Z,32.3
2022-10-06T21:07:13.819Z,32.3
2022-10-06T21:12:55.638Z,32.3
2022-10-06T21:18:34.208Z,32.3
2022-10-06T21:24:11.288Z,32.3
2022-10-06T21:29:49.479Z,32.3
2022-10-06T21:35:27.636Z,32.3
2022-10-06T21:41:08.372Z,32.2
2022-10-06T21:47:16.795Z,32.2
2022-10-06T21:52:39.419Z,32.2
2022-10-06T21:58:17.615Z,32.2
2022-10-06T22:03:55.435Z,32.2
2022-10-06T22:09:33.537Z,32.2
2022-10-06T22:15:10.905Z,32.2
2022-10-06T22:20:48.492Z,32.2
2022-10-06T22:26:13.452Z,32.2
2022-10-06T22:31:56.310Z,32.2
2022-10-06T22:37:32.725Z,32.2
2022-10-06T22:43:15.248Z,32.2
2022-10-06T22:48:37.789Z,32.2
2022-10-06T22:53:59.510Z,32.2
2022-10-06T22:59:21.741Z,32.1
2022-10-06T23:04:43.796Z,32.1
2022-10-06T23:09:40.633Z,32.1
2022-10-06T23:15:02.394Z,32.1
2022-10-06T23:19:53.359Z,32.1
2022-10-06T23:25:14.961Z,32.1
2022-10-06T23:30:06.556Z,32.1
2022-10-06T23:35:12.563Z,32.1
2022-10-06T23:40:49.123Z,32.1
2022-10-06T23:46:10.688Z,32.1
2022-10-06T23:51:32.827Z,32.1
2022-10-06T23:56:38.401Z,32.1
